Time;durP1;ratioP1;P1;durP2;ratioP2;P2;SDS_P1;SDS_P2;PMS_P1;PMS_P2;Temp;Humidity;BMP_temperature;BMP_pressure;BME280_temperature;BME280_humidity;BME280_pressure;Samples;Min_cycle;Max_cycle;Signal;HPM_P1;HPM_P2
2022/01/22 00:02:03;;;;;;;13.43;8.20;;;6.60;91.40;;;;;;5119255;27;20198;-82
2022/01/22 00:04:29;;;;;;;12.60;7.73;;;6.50;91.20;;;;;;5137241;27;20162;-86
2022/01/22 00:06:55;;;;;;;17.23;8.30;;;6.50;91.50;;;;;;5137190;27;20182;-81
2022/01/22 00:09:25;;;;;;;13.90;8.50;;;6.50;91.40;;;;;;5119445;27;20636;-82
2022/01/22 00:11:53;;;;;;;12.43;7.90;;;6.40;91.90;;;;;;5136725;27;20221;-85
2022/01/22 00:14:25;;;;;;;11.83;8.00;;;6.40;92.60;;;;;;5156597;27;20173;-82
2022/01/22 00:16:59;;;;;;;12.60;7.97;;;6.40;93.50;;;;;;5134144;27;20174;-83
2022/01/22 00:19:27;;;;;;;17.67;8.97;;;6.30;93.40;;;;;;5136817;27;20170;-82
2022/01/22 00:21:55;;;;;;;18.57;9.60;;;6.30;92.90;;;;;;5143096;27;20173;-82
2022/01/22 00:24:20;;;;;;;20.07;9.87;;;6.40;92.00;;;;;;5121151;27;20226;-83
2022/01/22 00:26:46;;;;;;;16.83;9.27;;;6.30;92.10;;;;;;5121511;27;20174;-82
2022/01/22 00:29:15;;;;;;;16.43;9.20;;;6.30;92.30;;;;;;5159214;27;20158;-81
2022/01/22 00:31:43;;;;;;;12.90;9.07;;;6.30;92.40;;;;;;5158273;27;20201;-82
2022/01/22 00:34:10;;;;;;;13.20;9.60;;;6.30;92.70;;;;;;5142795;27;20181;-82
2022/01/22 00:36:39;;;;;;;19.60;10.83;;;6.30;92.60;;;;;;5144482;27;20211;-83
2022/01/22 00:39:10;;;;;;;13.17;9.00;;;6.30;92.50;;;;;;5119002;27;20224;-83
2022/01/22 00:41:36;;;;;;;14.03;9.07;;;6.30;93.90;;;;;;5117310;27;20178;-81
2022/01/22 00:44:01;;;;;;;15.33;8.93;;;6.10;94.30;;;;;;5117899;27;20185;-85
2022/01/22 00:46:27;;;;;;;12.63;9.27;;;6.10;94.50;;;;;;5142908;27;20163;-82
2022/01/22 00:48:53;;;;;;;16.37;9.23;;;6.20;94.00;;;;;;5130154;27;20166;-81
2022/01/22 00:51:20;;;;;;;13.37;9.10;;;6.30;93.40;;;;;;5123995;27;20209;-82
2022/01/22 00:53:46;;;;;;;19.97;9.07;;;6.30;92.80;;;;;;5136615;27;20162;-85
2022/01/22 00:56:13;;;;;;;14.30;9.33;;;6.30;92.30;;;;;;5117302;27;20185;-85
2022/01/22 00:58:39;;;;;;;13.97;9.70;;;6.40;92.30;;;;;;5117364;27;20193;-82
2022/01/22 01:01:08;;;;;;;24.37;11.47;;;6.40;92.40;;;;;;5135645;27;20163;-80
2022/01/22 01:03:36;;;;;;;15.17;10.07;;;6.40;92.50;;;;;;5135581;27;20170;-84
2022/01/22 01:06:04;;;;;;;12.77;9.57;;;6.30;92.30;;;;;;5137501;27;20190;-82
2022/01/22 01:08:32;;;;;;;13.83;9.80;;;6.40;92.20;;;;;;5136440;27;20163;-81
2022/01/22 01:10:58;;;;;;;15.07;10.33;;;6.40;92.50;;;;;;5116278;27;20210;-83
2022/01/22 01:13:27;;;;;;;13.63;9.67;;;6.30;92.50;;;;;;5135361;27;20178;-82
2022/01/22 01:16:03;;;;;;;16.70;9.63;;;6.40;92.50;;;;;;5116967;27;20185;-83
2022/01/22 01:32:18;;;;;;;14.00;10.50;;;6.30;93.70;;;;;;5135508;27;20572;-81
2022/01/22 01:34:46;;;;;;;15.30;10.30;;;6.30;93.40;;;;;;5117641;27;20193;-84
2022/01/22 01:37:15;;;;;;;13.43;9.70;;;6.30;94.10;;;;;;5135984;27;20154;-82
2022/01/22 01:39:45;;;;;;;14.77;11.00;;;6.40;94.00;;;;;;5136062;27;20559;-82
2022/01/22 01:42:20;;;;;;;14.97;10.43;;;6.50;93.20;;;;;;5135122;27;20219;-84
2022/01/22 01:44:46;;;;;;;13.33;10.50;;;6.40;92.80;;;;;;5135321;27;20245;-82
2022/01/22 01:47:15;;;;;;;13.00;10.27;;;6.40;92.60;;;;;;5116494;27;20273;-82
2022/01/22 01:49:41;;;;;;;17.10;10.63;;;6.30;92.80;;;;;;5135012;27;20169;-82
2022/01/22 01:52:12;;;;;;;18.83;10.83;;;6.30;93.20;;;;;;5116849;27;20217;-84
2022/01/22 01:59:53;;;;;;;16.63;10.37;;;6.40;94.50;;;;;;5135416;27;20617;-84
2022/01/22 02:02:22;;;;;;;13.80;10.17;;;6.30;94.40;;;;;;5116977;28;20172;-82
2022/01/22 02:04:47;;;;;;;15.77;11.43;;;6.30;94.40;;;;;;5117950;27;20170;-82
2022/01/22 02:07:13;;;;;;;13.27;9.63;;;6.40;94.20;;;;;;5138029;28;20177;-84
2022/01/22 02:09:41;;;;;;;15.77;11.23;;;6.40;93.70;;;;;;5140835;28;20230;-81
2022/01/22 02:12:14;;;;;;;17.67;10.33;;;6.50;93.50;;;;;;5121823;28;20214;-81
2022/01/22 02:25:29;;;;;;;13.00;9.50;;;6.40;94.80;;;;;;5157033;28;20159;-81
2022/01/22 02:27:55;;;;;;;14.63;10.97;;;6.50;93.80;;;;;;5139653;28;20163;-80
2022/01/22 02:30:29;;;;;;;17.90;10.97;;;6.60;93.60;;;;;;5135286;28;20271;-81
2022/01/22 02:35:46;;;;;;;14.73;10.70;;;6.60;93.40;;;;;;5151894;27;20165;-81
2022/01/22 02:38:21;;;;;;;14.37;10.53;;;6.70;93.30;;;;;;5154658;27;20151;-80
2022/01/22 02:40:48;;;;;;;15.53;10.70;;;6.70;93.60;;;;;;5159493;27;20173;-83
2022/01/22 02:43:19;;;;;;;20.17;11.27;;;6.70;92.70;;;;;;5151671;27;20190;-83
2022/01/22 02:45:49;;;;;;;15.47;10.90;;;6.60;92.60;;;;;;5120605;27;20257;-81
2022/01/22 02:48:21;;;;;;;14.60;11.03;;;6.60;92.80;;;;;;5121523;27;20596;-80
2022/01/22 02:50:46;;;;;;;17.63;11.40;;;6.60;92.80;;;;;;5138685;27;20658;-84
2022/01/22 02:53:13;;;;;;;15.90;11.00;;;6.50;93.00;;;;;;5120485;27;20219;-85
2022/01/22 02:55:40;;;;;;;16.73;10.50;;;6.50;93.50;;;;;;5145772;27;20190;-80
2022/01/22 02:58:06;;;;;;;14.67;10.93;;;6.50;94.30;;;;;;5136400;27;20205;-83
2022/01/22 03:00:32;;;;;;;16.10;11.43;;;6.50;94.70;;;;;;5130144;27;20526;-82
2022/01/22 03:03:01;;;;;;;16.23;11.37;;;6.50;94.90;;;;;;5139149;27;20174;-82
2022/01/22 03:05:28;;;;;;;15.00;12.40;;;6.40;95.10;;;;;;5118888;27;20189;-81
2022/01/22 03:07:56;;;;;;;16.17;11.17;;;6.50;95.50;;;;;;5119430;27;20184;-85
2022/01/22 03:10:24;;;;;;;17.07;11.37;;;6.40;95.20;;;;;;5138569;27;20209;-84
2022/01/22 03:18:07;;;;;;;15.27;11.67;;;6.70;93.70;;;;;;5138142;27;20173;-84
2022/01/22 03:21:11;;;;;;;17.13;12.47;;;6.70;93.40;;;;;;5138269;27;20626;-85
2022/01/22 03:29:04;;;;;;;17.60;13.07;;;6.60;93.80;;;;;;5137762;27;20219;-81
2022/01/22 03:31:30;;;;;;;14.43;12.93;;;6.70;93.60;;;;;;5119735;27;20657;-81
2022/01/22 03:33:55;;;;;;;16.23;13.37;;;6.60;93.50;;;;;;5118850;27;20170;-83
2022/01/22 03:36:22;;;;;;;20.27;13.80;;;6.60;93.60;;;;;;5119824;27;20573;-83
2022/01/22 03:38:48;;;;;;;20.97;14.03;;;6.50;94.00;;;;;;5118657;27;20170;-83
2022/01/22 03:41:15;;;;;;;21.13;14.07;;;6.50;94.30;;;;;;5119776;27;20230;-84
2022/01/22 03:43:41;;;;;;;18.67;13.60;;;6.50;94.60;;;;;;5120356;27;20222;-83
2022/01/22 03:46:08;;;;;;;20.67;15.20;;;6.50;94.60;;;;;;5118761;27;20645;-85
2022/01/22 03:48:33;;;;;;;21.00;14.53;;;6.60;94.70;;;;;;5139690;27;20174;-84
2022/01/22 03:50:59;;;;;;;23.00;15.37;;;6.60;95.00;;;;;;5137459;27;21005;-80
2022/01/22 03:53:25;;;;;;;17.23;13.50;;;6.50;95.10;;;;;;5137803;27;20171;-83
2022/01/22 03:58:22;;;;;;;19.97;14.90;;;6.60;95.30;;;;;;5137555;27;20561;-82
2022/01/22 04:00:51;;;;;;;16.67;14.13;;;6.50;95.50;;;;;;5137221;27;20175;-81
2022/01/22 04:03:30;;;;;;;19.83;15.07;;;6.50;96.20;;;;;;5118633;27;20194;-82
2022/01/22 04:08:25;;;;;;;18.17;15.40;;;6.80;94.90;;;;;;5139639;27;20170;-81
2022/01/22 04:10:50;;;;;;;18.03;14.63;;;6.80;94.50;;;;;;5129556;27;20206;-82
2022/01/22 04:13:21;;;;;;;20.03;14.67;;;6.80;94.40;;;;;;5126972;27;20171;-83
2022/01/22 04:15:49;;;;;;;20.33;14.13;;;6.80;95.50;;;;;;5121762;27;20182;-80
2022/01/22 04:28:54;;;;;;;21.50;15.50;;;6.90;95.80;;;;;;5143623;27;20178;-83
2022/01/22 04:31:23;;;;;;;20.37;15.40;;;7.00;94.80;;;;;;5119316;27;20558;-86
2022/01/22 04:33:49;;;;;;;17.73;14.70;;;6.90;95.00;;;;;;5137362;27;20170;-84
2022/01/22 04:36:15;;;;;;;22.23;15.93;;;7.10;94.50;;;;;;5128343;27;20170;-83
2022/01/22 04:38:41;;;;;;;23.73;15.23;;;7.00;94.40;;;;;;5147330;27;20205;-82
2022/01/22 04:41:07;;;;;;;19.87;14.73;;;7.00;94.60;;;;;;5124800;27;20181;-85
2022/01/22 04:43:39;;;;;;;22.27;16.40;;;7.10;94.50;;;;;;5120005;27;20206;-83
2022/01/22 04:46:21;;;;;;;19.83;15.10;;;6.90;95.10;;;;;;5118408;27;20628;-83
2022/01/22 04:49:04;;;;;;;18.27;15.70;;;6.90;95.60;;;;;;5118078;27;20269;-83
2022/01/22 04:56:58;;;;;;;18.97;14.70;;;7.00;96.30;;;;;;5142785;27;20172;-82
2022/01/22 04:59:23;;;;;;;20.67;15.93;;;7.00;96.20;;;;;;5141061;27;20261;-80
2022/01/22 05:01:49;;;;;;;21.77;16.20;;;7.00;96.00;;;;;;5130187;27;20170;-80
2022/01/22 05:04:15;;;;;;;21.23;15.67;;;7.10;96.00;;;;;;5136908;27;20166;-81
2022/01/22 05:06:40;;;;;;;21.40;16.43;;;7.00;95.60;;;;;;5135380;27;20205;-81
2022/01/22 05:09:07;;;;;;;20.50;16.57;;;7.00;95.60;;;;;;5118467;27;20172;-84
2022/01/22 05:11:33;;;;;;;24.20;16.57;;;7.00;95.40;;;;;;5119402;27;20214;-82
2022/01/22 05:13:58;;;;;;;20.83;16.23;;;7.00;94.80;;;;;;5135928;27;20191;-83
2022/01/22 05:16:24;;;;;;;23.97;18.63;;;7.00;94.90;;;;;;5139644;27;20185;-80
2022/01/22 05:19:02;;;;;;;26.40;18.60;;;7.00;95.10;;;;;;5129422;27;20194;-82
2022/01/22 05:21:31;;;;;;;25.13;18.40;;;7.00;94.80;;;;;;5118853;27;20299;-82
2022/01/22 05:24:01;;;;;;;27.77;18.37;;;7.00;95.10;;;;;;5144707;27;20606;-81
2022/01/22 05:26:49;;;;;;;25.73;19.27;;;6.80;95.90;;;;;;5147627;27;20230;-82
2022/01/22 05:36:59;;;;;;;24.07;18.57;;;7.10;96.60;;;;;;5135454;27;20286;-80
2022/01/22 05:39:32;;;;;;;22.27;17.83;;;7.10;96.30;;;;;;5116866;27;20181;-80
2022/01/22 05:42:01;;;;;;;27.47;19.77;;;7.30;96.00;;;;;;5118521;27;20200;-81
2022/01/22 05:44:28;;;;;;;25.77;19.33;;;7.30;95.10;;;;;;5117252;27;20182;-82
2022/01/22 05:46:57;;;;;;;26.10;21.43;;;7.40;94.70;;;;;;5116874;27;20227;-82
2022/01/22 05:49:25;;;;;;;29.17;20.53;;;7.30;94.10;;;;;;5117104;27;20185;-81
2022/01/22 05:51:54;;;;;;;31.33;20.93;;;7.30;94.60;;;;;;5116455;28;20235;-83
2022/01/22 05:59:36;;;;;;;29.60;22.03;;;7.10;96.00;;;;;;5134653;27;20661;-81
2022/01/22 06:02:03;;;;;;;31.03;21.83;;;7.00;96.40;;;;;;5129198;27;20319;-81
2022/01/22 06:04:29;;;;;;;29.13;22.77;;;6.90;97.50;;;;;;5128407;28;20261;-85
2022/01/22 06:06:54;;;;;;;31.03;22.50;;;6.80;98.00;;;;;;5135472;28;20221;-83
2022/01/22 06:09:20;;;;;;;30.23;22.67;;;6.70;98.20;;;;;;5119463;27;20184;-84
2022/01/22 06:12:14;;;;;;;31.60;22.47;;;6.80;98.70;;;;;;5142010;27;20728;-84
2022/01/22 06:14:39;;;;;;;31.40;21.77;;;6.80;98.70;;;;;;5156103;27;20185;-80
2022/01/22 06:17:05;;;;;;;31.73;22.37;;;6.90;98.30;;;;;;5153166;27;20174;-82
2022/01/22 06:19:34;;;;;;;33.40;23.10;;;6.70;98.90;;;;;;5142005;27;20641;-82
2022/01/22 06:22:00;;;;;;;33.20;23.57;;;6.80;99.00;;;;;;5123529;27;20181;-85
2022/01/22 06:24:26;;;;;;;30.67;23.40;;;6.80;99.00;;;;;;5123302;27;20162;-82
2022/01/22 06:26:52;;;;;;;32.27;23.43;;;6.80;99.30;;;;;;5142266;27;20258;-82
2022/01/22 06:29:19;;;;;;;34.30;23.93;;;6.80;99.40;;;;;;5123239;27;20181;-82
2022/01/22 06:31:44;;;;;;;30.37;23.90;;;6.80;99.50;;;;;;5141373;27;20654;-84
2022/01/22 06:34:10;;;;;;;32.20;22.47;;;6.80;99.80;;;;;;5141709;27;20166;-84
2022/01/22 06:36:36;;;;;;;33.93;23.50;;;6.80;99.50;;;;;;5123307;27;20223;-82
2022/01/22 06:40:02;;;;;;;33.33;23.70;;;6.80;99.60;;;;;;5124054;27;20174;-85
2022/01/22 06:41:55;;;;;;;29.83;22.00;;;6.90;99.60;;;;;;5136982;27;20182;-83
2022/01/22 06:44:25;;;;;;;32.13;23.50;;;6.90;99.00;;;;;;5123582;27;20177;-83
2022/01/22 06:46:54;;;;;;;35.30;24.30;;;6.80;99.50;;;;;;5130328;27;20170;-82
2022/01/22 06:49:20;;;;;;;33.83;23.80;;;6.80;99.90;;;;;;5152656;27;20177;-80
2022/01/22 06:51:47;;;;;;;30.80;23.60;;;6.80;99.60;;;;;;5150712;27;20202;-81
2022/01/22 06:54:14;;;;;;;30.40;22.77;;;6.90;99.50;;;;;;5140171;27;20185;-80
2022/01/22 06:56:41;;;;;;;35.60;24.40;;;6.90;99.50;;;;;;5131449;27;20223;-81
2022/01/22 06:59:10;;;;;;;32.57;24.23;;;6.70;99.80;;;;;;5143200;27;20221;-82
2022/01/22 07:01:36;;;;;;;33.37;23.67;;;6.70;99.90;;;;;;5142040;27;20182;-83
2022/01/22 07:04:05;;;;;;;35.23;22.10;;;6.70;99.90;;;;;;5142575;27;20166;-82
2022/01/22 07:06:41;;;;;;;30.03;23.50;;;6.70;99.90;;;;;;5127974;27;20308;-80
2022/01/22 07:09:07;;;;;;;29.73;22.03;;;6.80;99.90;;;;;;5144231;27;20166;-84
2022/01/22 07:11:33;;;;;;;33.33;22.27;;;6.70;99.90;;;;;;5111355;27;20229;-83
2022/01/22 07:14:03;;;;;;;30.80;23.20;;;6.70;99.90;;;;;;5142608;27;20606;-85
2022/01/22 07:16:29;;;;;;;31.40;22.43;;;6.80;99.90;;;;;;5124011;27;20257;-82
2022/01/22 07:19:00;;;;;;;32.47;22.97;;;6.70;99.90;;;;;;5142551;27;20622;-84
2022/01/22 07:21:29;;;;;;;28.40;22.53;;;6.70;99.90;;;;;;5119033;27;20174;-85
2022/01/22 07:26:21;;;;;;;31.27;21.97;;;6.70;99.90;;;;;;5156795;27;20664;-84
2022/01/22 07:28:50;;;;;;;29.80;22.73;;;6.60;99.90;;;;;;5129985;27;20591;-84
2022/01/22 07:31:32;;;;;;;32.33;22.73;;;6.60;99.90;;;;;;5139447;27;20260;-85
2022/01/22 07:33:57;;;;;;;31.60;23.53;;;6.70;99.90;;;;;;5120858;27;20190;-85
2022/01/22 07:36:24;;;;;;;30.33;22.60;;;6.80;99.90;;;;;;5155759;27;20192;-86
2022/01/22 07:38:55;;;;;;;31.90;22.83;;;6.80;99.90;;;;;;5133949;27;20174;-83
2022/01/22 07:41:22;;;;;;;31.33;22.70;;;6.80;99.90;;;;;;5125258;27;20174;-83
2022/01/22 07:43:48;;;;;;;35.27;22.77;;;6.90;99.90;;;;;;5124119;27;20182;-81
2022/01/22 07:46:14;;;;;;;29.40;22.57;;;7.00;99.70;;;;;;5120598;27;20165;-84
2022/01/22 07:48:41;;;;;;;29.37;22.63;;;7.00;99.60;;;;;;5121194;27;20537;-83
2022/01/22 07:51:09;;;;;;;29.40;21.90;;;7.00;99.40;;;;;;5120789;27;20205;-85
2022/01/22 07:53:34;;;;;;;32.43;22.60;;;7.00;99.20;;;;;;5142902;27;20229;-83
2022/01/22 07:56:00;;;;;;;31.47;22.07;;;7.00;99.10;;;;;;5151258;27;20174;-82
2022/01/22 07:58:26;;;;;;;31.23;23.13;;;7.10;99.30;;;;;;5145117;27;20189;-83
2022/01/22 08:00:54;;;;;;;31.40;22.63;;;7.10;98.90;;;;;;5137293;27;20181;-83
2022/01/22 08:03:20;;;;;;;31.43;22.33;;;7.10;98.80;;;;;;5135282;27;20257;-86
2022/01/22 08:05:45;;;;;;;29.10;22.17;;;7.20;98.60;;;;;;5138110;27;20181;-84
2022/01/22 08:08:11;;;;;;;28.47;22.83;;;7.10;98.80;;;;;;5157834;27;20174;-84
2022/01/22 08:10:43;;;;;;;31.20;22.97;;;7.00;98.70;;;;;;5141896;27;20284;-83
2022/01/22 08:13:18;;;;;;;31.83;22.17;;;7.00;99.10;;;;;;5152119;27;20169;-82
2022/01/22 08:15:45;;;;;;;29.70;23.20;;;7.10;98.90;;;;;;5139917;27;20169;-82
2022/01/22 08:18:11;;;;;;;31.53;22.77;;;7.20;98.90;;;;;;5119741;27;20215;-83
2022/01/22 08:20:37;;;;;;;32.23;23.17;;;7.00;99.00;;;;;;5119235;27;20170;-84
2022/01/22 08:23:03;;;;;;;33.53;22.70;;;7.00;99.20;;;;;;5125701;27;20212;-84
2022/01/22 08:25:31;;;;;;;33.97;23.90;;;6.90;99.70;;;;;;5122802;27;20216;-82
2022/01/22 08:30:35;;;;;;;30.97;22.53;;;7.00;99.90;;;;;;5137114;27;20197;-82
2022/01/22 08:33:31;;;;;;;31.70;23.33;;;6.90;99.60;;;;;;5117167;27;20166;-83
2022/01/22 08:35:53;;;;;;;35.83;24.07;;;6.90;99.80;;;;;;5136654;27;20170;-81
2022/01/22 08:38:29;;;;;;;32.23;23.80;;;6.90;99.80;;;;;;5138377;27;20166;-83
2022/01/22 08:40:55;;;;;;;33.47;22.27;;;6.90;99.90;;;;;;5137873;27;20509;-83
2022/01/22 08:43:22;;;;;;;29.50;23.40;;;6.90;99.90;;;;;;5119786;27;20170;-83
2022/01/22 08:45:50;;;;;;;32.30;23.20;;;6.90;99.90;;;;;;5119511;27;20303;-85
2022/01/22 08:48:21;;;;;;;33.80;23.07;;;6.90;99.90;;;;;;5118721;27;20177;-82
2022/01/22 08:50:47;;;;;;;36.77;23.53;;;6.90;99.90;;;;;;5118279;27;20273;-82
2022/01/22 08:53:13;;;;;;;36.30;23.60;;;6.90;99.90;;;;;;5118676;27;20352;-83
2022/01/22 08:55:39;;;;;;;29.80;22.93;;;6.90;99.90;;;;;;5119165;27;20182;-84
2022/01/22 08:58:08;;;;;;;37.10;24.97;;;7.00;99.90;;;;;;5119399;27;20197;-82
2022/01/22 09:00:35;;;;;;;34.47;23.27;;;7.10;99.90;;;;;;5119065;27;20194;-83
2022/01/22 09:03:01;;;;;;;28.93;22.00;;;7.20;99.90;;;;;;5120835;27;20171;-86
2022/01/22 09:05:33;;;;;;;29.40;22.53;;;7.30;99.40;;;;;;5119833;27;20253;-83
2022/01/22 09:07:59;;;;;;;33.20;23.77;;;7.30;99.40;;;;;;5118414;27;20196;-84
2022/01/22 09:10:25;;;;;;;33.00;23.43;;;7.20;99.50;;;;;;5118774;27;20174;-84
2022/01/22 09:12:51;;;;;;;31.23;22.60;;;7.10;99.20;;;;;;5119153;27;20177;-83
2022/01/22 09:15:17;;;;;;;32.50;22.97;;;7.00;99.40;;;;;;5136818;27;20166;-84
2022/01/22 09:17:47;;;;;;;27.77;22.03;;;7.10;99.40;;;;;;5118128;27;20284;-82
2022/01/22 09:20:29;;;;;;;30.10;22.97;;;7.20;99.30;;;;;;5118239;27;20209;-82
2022/01/22 09:22:55;;;;;;;29.73;22.33;;;7.00;99.60;;;;;;5140060;27;20185;-83
2022/01/22 09:25:21;;;;;;;31.10;21.47;;;7.00;99.50;;;;;;5118516;27;20182;-83
2022/01/22 09:27:46;;;;;;;29.63;22.00;;;7.00;99.30;;;;;;5123580;27;20223;-83
2022/01/22 09:30:12;;;;;;;30.73;23.13;;;7.00;99.60;;;;;;5137349;27;20249;-84
2022/01/22 09:32:38;;;;;;;31.77;22.80;;;7.00;99.50;;;;;;5118094;27;20177;-83
2022/01/22 09:35:04;;;;;;;31.43;23.63;;;7.00;99.60;;;;;;5119023;28;20174;-83
2022/01/22 09:37:31;;;;;;;32.93;23.37;;;7.00;99.50;;;;;;5119370;27;20194;-83
2022/01/22 09:39:57;;;;;;;30.83;22.97;;;7.20;99.30;;;;;;5120892;27;20198;-82
2022/01/22 09:42:24;;;;;;;35.97;22.40;;;7.20;99.20;;;;;;5138384;27;20162;-82
2022/01/22 09:44:50;;;;;;;35.27;22.83;;;7.20;98.90;;;;;;5119941;27;20178;-83
2022/01/22 09:47:20;;;;;;;27.80;22.70;;;7.30;98.80;;;;;;5139285;27;20166;-84
2022/01/22 09:49:46;;;;;;;30.90;22.13;;;7.30;98.50;;;;;;5139010;27;20170;-83
2022/01/22 09:52:14;;;;;;;27.20;22.20;;;7.30;98.50;;;;;;5118455;27;20217;-83
2022/01/22 09:54:41;;;;;;;29.37;22.50;;;7.20;98.30;;;;;;5118332;27;20250;-82
2022/01/22 09:57:09;;;;;;;30.83;23.43;;;7.20;98.20;;;;;;5120022;27;20242;-82
2022/01/22 09:59:39;;;;;;;32.53;23.50;;;7.30;98.20;;;;;;5119981;28;20187;-84
2022/01/22 10:02:14;;;;;;;31.60;23.07;;;7.20;98.50;;;;;;5101703;28;20178;-83
2022/01/22 10:04:42;;;;;;;30.43;22.53;;;7.20;98.10;;;;;;5119560;27;20181;-83
2022/01/22 10:07:34;;;;;;;31.07;23.33;;;7.30;98.00;;;;;;5119806;28;20186;-83
2022/01/22 10:10:07;;;;;;;32.97;23.80;;;7.40;98.00;;;;;;5117874;28;20235;-82
2022/01/22 10:12:47;;;;;;;28.33;20.23;;;7.60;97.50;;;;;;5119090;28;20216;-82
2022/01/22 10:15:21;;;;;;;32.17;23.97;;;7.50;96.00;;;;;;5139309;28;20614;-84
2022/01/22 10:17:52;;;;;;;27.60;21.40;;;7.40;96.30;;;;;;5119826;28;20178;-83
2022/01/22 10:20:23;;;;;;;26.40;20.50;;;7.20;97.20;;;;;;5118706;28;20205;-85
2022/01/22 10:22:53;;;;;;;31.40;22.80;;;7.40;97.90;;;;;;5118763;28;20163;-83
2022/01/22 10:25:24;;;;;;;31.80;22.80;;;7.30;97.60;;;;;;5138051;28;20181;-83
2022/01/22 10:28:05;;;;;;;30.47;22.47;;;7.30;97.50;;;;;;5120788;28;20162;-84
2022/01/22 10:30:41;;;;;;;28.20;21.10;;;7.30;97.00;;;;;;5118599;28;20249;-84
2022/01/22 10:35:44;;;;;;;29.90;21.57;;;7.40;96.60;;;;;;5138584;28;20162;-83
2022/01/22 10:38:11;;;;;;;31.53;21.70;;;7.40;96.60;;;;;;5122868;28;20593;-82
2022/01/22 10:40:40;;;;;;;28.27;21.07;;;7.40;96.70;;;;;;5120294;28;20265;-84
2022/01/22 10:43:16;;;;;;;29.87;22.27;;;7.50;96.10;;;;;;5138135;28;20241;-85
2022/01/22 10:46:00;;;;;;;26.83;20.97;;;7.50;96.20;;;;;;5120966;28;20176;-83
2022/01/22 10:48:25;;;;;;;27.50;22.40;;;7.40;96.20;;;;;;5120162;28;20171;-84
2022/01/22 10:51:03;;;;;;;32.77;23.77;;;7.40;96.90;;;;;;5120059;28;20551;-84
2022/01/22 10:54:02;;;;;;;28.67;21.97;;;7.50;96.80;;;;;;5125138;28;20162;-84
2022/01/22 10:56:32;;;;;;;32.73;22.33;;;7.40;96.40;;;;;;5138611;27;20174;-82
2022/01/22 10:59:09;;;;;;;31.57;22.20;;;7.40;96.20;;;;;;5140884;27;20190;-81
2022/01/22 11:01:45;;;;;;;35.20;22.20;;;7.60;96.10;;;;;;5152703;27;20170;-84
2022/01/22 11:04:17;;;;;;;29.27;22.10;;;7.70;95.80;;;;;;5134951;27;20249;-84
2022/01/22 11:06:48;;;;;;;26.73;22.43;;;7.80;95.10;;;;;;5156066;27;20545;-82
2022/01/22 11:09:14;;;;;;;27.50;20.80;;;7.80;94.30;;;;;;5145558;27;20167;-83
2022/01/22 11:11:44;;;;;;;29.10;19.77;;;7.70;94.40;;;;;;5124315;27;20213;-84
2022/01/22 11:14:11;;;;;;;28.87;20.43;;;7.50;94.00;;;;;;5124460;27;20192;-84
2022/01/22 11:16:40;;;;;;;27.70;20.70;;;7.40;93.40;;;;;;5106237;27;20167;-84
2022/01/22 11:19:13;;;;;;;32.30;21.87;;;7.40;94.90;;;;;;5139942;27;20581;-84
2022/01/22 11:21:44;;;;;;;28.73;22.20;;;7.50;94.70;;;;;;5144487;27;20159;-83
2022/01/22 11:24:12;;;;;;;29.73;22.43;;;7.40;95.00;;;;;;5124173;27;20188;-83
2022/01/22 11:26:39;;;;;;;33.93;23.00;;;7.40;95.60;;;;;;5121247;27;20598;-82
2022/01/22 11:29:07;;;;;;;28.67;22.87;;;7.60;95.50;;;;;;5124538;27;20178;-84
2022/01/22 11:31:37;;;;;;;27.67;21.23;;;7.50;95.00;;;;;;5140897;27;20625;-84
2022/01/22 11:34:05;;;;;;;33.80;25.87;;;7.50;95.40;;;;;;5122117;27;20170;-82
2022/01/22 11:36:37;;;;;;;29.80;22.97;;;7.60;95.70;;;;;;5141753;27;20593;-84
2022/01/22 11:39:04;;;;;;;31.67;22.77;;;7.70;95.30;;;;;;5124594;27;20173;-82
2022/01/22 11:41:29;;;;;;;30.30;23.57;;;7.80;95.30;;;;;;5143726;27;20227;-84
2022/01/22 11:44:16;;;;;;;32.60;23.63;;;7.60;94.90;;;;;;5125601;27;20586;-83
2022/01/22 11:46:58;;;;;;;29.43;22.90;;;7.60;95.60;;;;;;5124872;27;20170;-83
2022/01/22 11:49:30;;;;;;;30.03;22.83;;;7.70;95.80;;;;;;5125088;27;20166;-84
2022/01/22 11:52:07;;;;;;;33.27;24.93;;;7.60;94.80;;;;;;5125777;27;20213;-83
2022/01/22 11:54:59;;;;;;;34.40;24.77;;;7.60;94.90;;;;;;5131957;27;20177;-82
2022/01/22 11:57:31;;;;;;;33.57;23.73;;;7.70;94.80;;;;;;5149537;27;20158;-83
2022/01/22 12:00:26;;;;;;;34.47;23.50;;;7.70;95.20;;;;;;5139494;27;20194;-82
2022/01/22 12:03:07;;;;;;;33.07;22.73;;;7.60;95.50;;;;;;5132086;27;20201;-81
2022/01/22 12:05:54;;;;;;;29.70;22.13;;;7.40;94.70;;;;;;5131987;27;20181;-84
2022/01/22 12:08:23;;;;;;;29.00;23.13;;;7.50;95.30;;;;;;5129758;27;20199;-83
2022/01/22 12:16:40;;;;;;;29.13;23.50;;;7.30;95.80;;;;;;5150211;27;20177;-83
2022/01/22 12:19:53;;;;;;;32.40;23.30;;;7.30;96.20;;;;;;5133508;27;20162;-82
2022/01/22 12:22:35;;;;;;;31.50;23.23;;;7.40;95.60;;;;;;5126782;27;20166;-82
2022/01/22 12:25:21;;;;;;;30.53;24.43;;;7.60;94.60;;;;;;5123781;27;20244;-83
2022/01/22 12:27:49;;;;;;;32.43;23.77;;;7.60;93.70;;;;;;5143752;27;20193;-83
2022/01/22 12:30:31;;;;;;;32.13;24.73;;;7.60;94.00;;;;;;5127427;27;20198;-83
2022/01/22 12:32:58;;;;;;;35.40;23.50;;;7.70;94.20;;;;;;5132241;27;20192;-84
2022/01/22 12:35:36;;;;;;;31.37;24.53;;;7.70;93.80;;;;;;5131065;27;20584;-83
2022/01/22 12:38:49;;;;;;;34.47;26.00;;;7.70;93.90;;;;;;5124415;27;20174;-84
2022/01/22 12:44:04;;;;;;;31.80;23.87;;;7.60;94.10;;;;;;5139598;27;20174;-83
2022/01/22 12:46:31;;;;;;;35.23;25.30;;;7.60;94.40;;;;;;5119785;27;20181;-84
2022/01/22 12:48:57;;;;;;;34.63;24.80;;;7.60;94.60;;;;;;5119766;27;20202;-83
2022/01/22 12:51:27;;;;;;;33.70;23.93;;;7.50;94.80;;;;;;5120277;27;20214;-83
2022/01/22 12:53:53;;;;;;;31.63;24.73;;;7.70;94.90;;;;;;5120486;27;20193;-85
2022/01/22 12:59:03;;;;;;;34.13;25.17;;;7.60;94.00;;;;;;5139664;27;20289;-84
2022/01/22 13:01:31;;;;;;;29.70;24.63;;;7.60;93.90;;;;;;5119936;27;20158;-83
2022/01/22 13:04:02;;;;;;;35.03;24.87;;;7.70;93.80;;;;;;5121220;27;20529;-83
2022/01/22 13:06:40;;;;;;;34.07;26.60;;;7.70;93.80;;;;;;5122305;27;20553;-85
2022/01/22 13:09:10;;;;;;;34.90;25.17;;;7.70;93.90;;;;;;5121636;27;20511;-83
2022/01/22 13:11:47;;;;;;;36.47;25.47;;;7.60;94.20;;;;;;5120406;27;20306;-84
2022/01/22 13:14:18;;;;;;;31.60;25.13;;;7.50;94.10;;;;;;5122060;27;20177;-81
2022/01/22 13:16:53;;;;;;;33.50;26.77;;;7.50;94.00;;;;;;5137065;27;20174;-83
2022/01/22 13:19:21;;;;;;;33.43;26.23;;;7.40;94.60;;;;;;5139279;27;20169;-83
2022/01/22 13:21:53;;;;;;;30.90;25.80;;;7.40;95.00;;;;;;5139941;27;20186;-84
2022/01/22 13:24:25;;;;;;;33.13;24.77;;;7.40;95.10;;;;;;5137241;27;20174;-83
2022/01/22 13:27:15;;;;;;;33.40;26.07;;;7.40;95.10;;;;;;5124294;27;20166;-83
2022/01/22 13:29:53;;;;;;;36.33;26.30;;;7.20;96.00;;;;;;5125526;27;20167;-85
2022/01/22 13:49:26;;;;;;;32.63;25.77;;;7.30;95.80;;;;;;5138759;27;20706;-83
2022/01/22 13:52:18;;;;;;;35.57;25.77;;;7.40;95.40;;;;;;5119852;27;20206;-81
2022/01/22 13:54:46;;;;;;;38.93;28.00;;;7.40;95.20;;;;;;5121169;27;20182;-84
2022/01/22 13:57:17;;;;;;;35.53;27.70;;;7.40;94.80;;;;;;5122729;28;20238;-85
2022/01/22 13:59:45;;;;;;;34.87;23.57;;;7.50;95.00;;;;;;5122301;27;20197;-84
2022/01/22 14:04:53;;;;;;;32.60;25.70;;;7.40;95.10;;;;;;5138830;27;20158;-85
2022/01/22 14:07:27;;;;;;;32.40;25.13;;;7.50;95.00;;;;;;5123194;28;20196;-84
2022/01/22 14:09:57;;;;;;;33.93;26.37;;;7.50;94.20;;;;;;5123175;28;20185;-83
2022/01/22 14:12:25;;;;;;;35.77;26.33;;;7.50;94.10;;;;;;5126185;28;20229;-84
2022/01/22 14:15:00;;;;;;;32.17;24.30;;;7.60;94.40;;;;;;5123131;28;20174;-84
2022/01/22 14:17:32;;;;;;;31.17;23.87;;;7.40;94.70;;;;;;5130268;28;20243;-84
2022/01/22 14:20:00;;;;;;;32.57;23.93;;;7.20;95.70;;;;;;5140739;27;20165;-83
2022/01/22 14:22:25;;;;;;;35.20;25.77;;;7.00;96.40;;;;;;5140049;28;20178;-82
2022/01/22 14:25:11;;;;;;;34.30;25.63;;;7.00;97.30;;;;;;5140114;28;20190;-83
2022/01/22 14:27:38;;;;;;;37.43;25.50;;;7.00;97.60;;;;;;5158999;27;20174;-82
2022/01/22 14:30:05;;;;;;;31.90;25.63;;;7.20;97.40;;;;;;5140795;27;20166;-84
2022/01/22 14:32:31;;;;;;;34.70;27.13;;;7.10;96.60;;;;;;5143894;27;20206;-83
2022/01/22 14:34:59;;;;;;;32.63;26.43;;;7.10;96.70;;;;;;5142697;27;20203;-84
2022/01/22 14:37:30;;;;;;;31.80;25.93;;;7.20;96.30;;;;;;5131597;27;20176;-84
2022/01/22 14:45:31;;;;;;;37.30;28.63;;;7.40;96.40;;;;;;5142511;27;20219;-83
2022/01/22 14:47:58;;;;;;;38.57;28.37;;;7.50;95.60;;;;;;5142329;27;20174;-84
2022/01/22 14:50:25;;;;;;;35.57;26.97;;;7.40;95.40;;;;;;5143991;27;20214;-84
2022/01/22 14:52:59;;;;;;;32.93;25.80;;;7.30;95.90;;;;;;5124791;27;20174;-83
2022/01/22 14:55:26;;;;;;;30.40;23.20;;;7.20;96.60;;;;;;5128607;27;20178;-85